메인 페이지
METAR-TAF:

METAR-TAF

공항 :

코모도로 아르투로 메리노 베니테스 국제공항

산티아고, 칠레

위도: 33-23S, 경도: 070-47W, 고도: 475m

현재 날씨관측

예보는 38분 전, 18:00시(UTC)에 발표되었습니다.
5kt남남동풍과 남서풍을 오가는
온도 15°C
습도 44%
기압 1017 hPa
시정: 8000m

METAR: SCEL 221800Z 19005KT 160V220 8000 NSC 15/03 Q1017 NOSIG

시각: 14:38 (18:38 UTC)

예보

예보는 2 시간 6분 전, 16:32시(UTC)에 발표되었습니다.
예보 대상 시간: 22일 18시부터 23일 18시까지 (UTC)
남남서5kt
시정: 8000m
전환 중
22일 19시부터 22일 21시까지 (UTC)
남남서10kt
시정 10km 이상
1500m 미만 상공 구름 및 적란운 없음
전환 중
23일 01시부터 23일 03시까지 (UTC)
남남동7kt
전환 중
23일 06시부터 23일 08시까지 (UTC)
시정: 6000m
일시적
23일 08시부터 23일 12시까지 (UTC)
시정: 4000m
박무

TAF: SCEL 221632Z 2218/2318 20005KT 8000 NSC TX16/2219Z TN02/2311Z BECMG 2219/2221 20010KT CAVOK BECMG 2301/2303 15007KT BECMG 2306/2308 6000 NSC TEMPO 2308/2312 4000 BR

4,000개 이상의 공항 관측 자료 및 예보 (METAR 및 TAF 보고).

지도상에서 검색 가능한 기상관측소가 노란 점과 빨간 점으로 표시되어 있습니다.

기상관측소 명을 보려면 표시 위로 마우스를 이동하세요.

날씨 관측과 예보를 보려면 클릭하세요.

지도 변경 : 확대하려면 엑스 표시가 있는 녹색 버튼, 축소하려면 빼기 표시가 있는 녹색 버튼, 다음 페이지의 지도를 보려면 녹색 화살표를 클릭하세요.


METAR-TAF: